createdAt,value
2023-05-10T00:02:02.112Z,2.55
2023-05-10T00:04:34.524Z,2.08
2023-05-10T00:07:07.051Z,1.88
2023-05-10T00:09:39.333Z,2.55
2023-05-10T00:12:11.618Z,1.92
2023-05-10T00:14:43.985Z,3.08
2023-05-10T00:17:16.939Z,1.92
2023-05-10T00:19:49.198Z,3.03
2023-05-10T00:22:21.733Z,2.63
2023-05-10T00:24:54.012Z,1.90
2023-05-10T00:27:26.356Z,2.72
2023-05-10T00:29:58.662Z,3.00
2023-05-10T00:32:31.700Z,2.63
2023-05-10T00:35:04.610Z,2.53
2023-05-10T00:37:36.948Z,3.10
2023-05-10T00:40:09.883Z,8.30
2023-05-10T00:42:42.193Z,7.90
2023-05-10T00:45:14.592Z,4.13
2023-05-10T00:47:47.725Z,7.22
2023-05-10T00:50:20.143Z,11.38
2023-05-10T00:52:53.149Z,3.28
2023-05-10T00:55:25.944Z,7.93
2023-05-10T00:57:58.690Z,3.55
2023-05-10T01:00:31.229Z,4.78
2023-05-10T01:03:04.321Z,3.50
2023-05-10T01:05:36.686Z,5.32
2023-05-10T01:08:09.282Z,4.43
2023-05-10T01:10:42.611Z,3.35
2023-05-10T01:13:19.636Z,6.80
2023-05-10T01:15:53.966Z,15.32
2023-05-10T01:18:28.820Z,3.50
2023-05-10T01:21:15.525Z,3.15
2023-05-10T01:24:13.854Z,4.07
2023-05-10T01:27:15.440Z,3.08
2023-05-10T01:30:24.213Z,2.72
2023-05-10T01:33:02.127Z,3.20
2023-05-10T01:35:40.729Z,3.80
2023-05-10T01:38:18.531Z,3.17
2023-05-10T01:41:10.593Z,2.83
2023-05-10T01:44:04.657Z,3.20
2023-05-10T01:46:39.126Z,3.78
2023-05-10T01:49:21.218Z,2.80
2023-05-10T01:52:01.046Z,2.90
2023-05-10T01:54:34.554Z,3.25
2023-05-10T01:57:10.209Z,3.45
2023-05-10T01:59:46.113Z,3.13
2023-05-10T02:02:21.584Z,2.97
2023-05-10T02:04:56.027Z,2.78
2023-05-10T02:07:30.053Z,2.50
2023-05-10T02:10:03.046Z,2.47
2023-05-10T02:12:37.350Z,3.15
2023-05-10T02:15:12.354Z,2.58
2023-05-10T02:17:47.313Z,2.17
2023-05-10T02:20:23.076Z,1.73
2023-05-10T02:22:56.804Z,2.20
2023-05-10T02:25:30.637Z,2.55
2023-05-10T02:28:06.273Z,2.58
2023-05-10T02:30:39.525Z,2.75
2023-05-10T02:33:12.525Z,2.40
2023-05-10T02:35:46.289Z,2.03
2023-05-10T02:38:21.036Z,2.67
2023-05-10T02:40:54.499Z,2.30
2023-05-10T02:43:32.945Z,2.92
2023-05-10T02:46:05.368Z,2.25
2023-05-10T02:48:38.574Z,2.53
2023-05-10T02:51:17.834Z,2.75
2023-05-10T02:53:51.535Z,3.40
2023-05-10T02:56:32.362Z,3.15
2023-05-10T02:59:05.301Z,2.50
2023-05-10T03:01:37.664Z,2.95
2023-05-10T03:04:10.009Z,2.38
2023-05-10T03:06:43.695Z,1.98
2023-05-10T03:09:16.188Z,2.42
2023-05-10T03:11:57.680Z,2.30
2023-05-10T03:14:43.142Z,2.10
2023-05-10T03:17:24.563Z,2.97
2023-05-10T03:19:58.694Z,2.38
2023-05-10T03:22:37.744Z,2.58
2023-05-10T03:25:12.958Z,2.90
2023-05-10T03:27:47.400Z,2.78
2023-05-10T03:30:20.607Z,2.33
2023-05-10T03:32:52.964Z,2.20
2023-05-10T03:35:25.306Z,2.88
2023-05-10T03:37:58.421Z,2.97
2023-05-10T03:40:32.196Z,2.35
2023-05-10T03:43:05.035Z,2.97
2023-05-10T03:45:37.705Z,2.40
2023-05-10T03:48:10.562Z,2.65
2023-05-10T03:50:43.197Z,2.38
2023-05-10T03:53:16.310Z,3.10
2023-05-10T03:55:48.568Z,3.78
2023-05-10T03:58:21.052Z,3.35
2023-05-10T04:00:53.319Z,3.13
2023-05-10T04:03:26.753Z,2.70
2023-05-10T04:06:00.461Z,2.88
2023-05-10T04:08:33.718Z,2.55
2023-05-10T04:11:07.193Z,4.00
2023-05-10T04:13:39.516Z,2.92
2023-05-10T04:16:11.806Z,3.50
2023-05-10T04:18:44.132Z,3.55
2023-05-10T04:21:16.386Z,3.40
2023-05-10T04:23:49.546Z,3.42
2023-05-10T04:26:22.346Z,3.20
2023-05-10T04:28:54.781Z,3.03
2023-05-10T04:31:28.144Z,3.38
2023-05-10T04:34:01.017Z,4.20
2023-05-10T04:36:35.539Z,3.60
2023-05-10T04:39:10.068Z,3.35
2023-05-10T04:41:42.342Z,3.47
2023-05-10T04:44:14.710Z,3.45
2023-05-10T04:46:47.024Z,4.00
2023-05-10T04:49:19.435Z,3.08
2023-05-10T04:51:51.750Z,3.30
2023-05-10T04:54:25.079Z,3.30
2023-05-10T04:56:57.320Z,3.50
2023-05-10T04:59:29.714Z,4.10
2023-05-10T05:02:02.049Z,4.00
2023-05-10T05:04:34.518Z,3.05
2023-05-10T05:07:06.823Z,3.58
2023-05-10T05:09:39.805Z,3.33
2023-05-10T05:12:14.324Z,3.40
2023-05-10T05:14:46.626Z,3.63
2023-05-10T05:17:18.903Z,3.65
2023-05-10T05:19:51.211Z,3.67
2023-05-10T05:22:27.642Z,3.83
2023-05-10T05:25:02.159Z,3.55
2023-05-10T05:27:34.690Z,3.97
2023-05-10T05:30:08.170Z,3.88
2023-05-10T05:32:40.434Z,3.75
2023-05-10T05:35:12.872Z,4.50
2023-05-10T05:37:45.244Z,3.75
2023-05-10T05:40:18.189Z,4.45
2023-05-10T05:42:50.450Z,3.15
2023-05-10T05:45:22.802Z,3.70
2023-05-10T05:47:57.862Z,3.45
2023-05-10T05:50:30.141Z,4.40
2023-05-10T05:53:02.558Z,4.40
2023-05-10T05:55:35.705Z,5.00
2023-05-10T05:58:08.040Z,4.15
2023-05-10T06:00:40.297Z,2.90
2023-05-10T06:03:12.751Z,4.35
2023-05-10T06:05:45.272Z,5.15
2023-05-10T06:08:17.545Z,3.97
2023-05-10T06:10:50.504Z,5.10
2023-05-10T06:13:22.859Z,3.97
2023-05-10T06:15:55.227Z,4.25
2023-05-10T06:18:27.602Z,4.35
2023-05-10T06:21:00.117Z,3.72
2023-05-10T06:23:32.696Z,4.75
2023-05-10T06:26:05.665Z,5.05
2023-05-10T06:28:38.601Z,4.78
2023-05-10T06:31:12.229Z,3.97
2023-05-10T06:33:44.577Z,5.22
2023-05-10T06:36:16.893Z,5.97
2023-05-10T06:38:49.240Z,6.43
2023-05-10T06:41:24.623Z,5.40
2023-05-10T06:43:57.151Z,4.53
2023-05-10T06:46:29.496Z,4.35
2023-05-10T06:49:01.834Z,5.63
2023-05-10T06:51:34.386Z,4.85
2023-05-10T06:54:07.161Z,5.97
2023-05-10T06:56:40.213Z,4.03
2023-05-10T06:59:13.820Z,5.10
2023-05-10T07:01:46.180Z,5.35
2023-05-10T07:04:18.610Z,5.88
2023-05-10T07:12:35.327Z,5.90
2023-05-10T07:15:09.783Z,5.07
2023-05-10T07:17:52.150Z,6.40
2023-05-10T07:20:29.349Z,5.55
2023-05-10T07:23:01.816Z,5.53
2023-05-10T07:25:34.103Z,5.82
2023-05-10T07:28:07.058Z,5.97
2023-05-10T07:30:39.455Z,5.22
2023-05-10T07:33:14.529Z,5.50
2023-05-10T07:35:47.023Z,5.20
2023-05-10T07:38:19.300Z,5.38
2023-05-10T07:40:51.580Z,5.22
2023-05-10T07:43:24.640Z,5.60
2023-05-10T07:45:57.865Z,5.28
2023-05-10T07:48:30.182Z,5.00
2023-05-10T07:51:02.478Z,6.15
2023-05-10T07:53:34.745Z,5.28
2023-05-10T07:56:22.269Z,5.75
2023-05-10T07:58:56.160Z,5.13
2023-05-10T08:01:31.923Z,4.72
2023-05-10T08:04:06.745Z,6.13
2023-05-10T08:06:39.774Z,5.05
2023-05-10T08:09:12.436Z,5.03
2023-05-10T08:11:44.693Z,6.25
2023-05-10T08:14:17.705Z,5.45
2023-05-10T08:16:49.987Z,6.15
2023-05-10T08:19:23.075Z,4.88
2023-05-10T08:21:56.070Z,5.20
2023-05-10T08:24:28.486Z,4.88
2023-05-10T08:27:01.109Z,5.72
2023-05-10T08:29:46.215Z,5.53
2023-05-10T08:32:22.215Z,5.22
2023-05-10T08:34:54.529Z,4.88
2023-05-10T08:37:30.257Z,5.60
2023-05-10T08:40:03.382Z,5.53
2023-05-10T08:42:38.066Z,5.30
2023-05-10T08:45:12.057Z,5.53
2023-05-10T08:47:44.730Z,5.50
2023-05-10T08:50:22.109Z,5.82
2023-05-10T08:52:58.259Z,5.80
2023-05-10T08:55:30.882Z,7.10
2023-05-10T08:58:04.078Z,7.05
2023-05-10T09:00:37.783Z,7.05
2023-05-10T09:03:10.553Z,5.78
2023-05-10T09:05:43.029Z,6.65
2023-05-10T09:08:16.530Z,6.13
2023-05-10T09:10:49.309Z,7.20
2023-05-10T09:13:22.751Z,5.82
2023-05-10T09:15:55.741Z,6.13
2023-05-10T09:18:28.253Z,6.00
2023-05-10T09:21:00.987Z,5.07
2023-05-10T09:23:33.307Z,5.40
2023-05-10T09:26:06.092Z,6.00
2023-05-10T09:28:52.047Z,6.20
2023-05-10T09:31:26.221Z,5.90
2023-05-10T09:33:58.582Z,5.82
2023-05-10T09:36:30.894Z,5.97
2023-05-10T09:39:03.538Z,5.20
2023-05-10T09:41:35.814Z,6.60
2023-05-10T09:44:08.360Z,6.65
2023-05-10T09:46:41.804Z,6.45
2023-05-10T09:49:15.452Z,5.60
2023-05-10T09:51:47.977Z,6.90
2023-05-10T09:54:20.276Z,6.35
2023-05-10T09:56:52.598Z,5.97
2023-05-10T09:59:26.735Z,5.57
2023-05-10T10:02:00.946Z,6.05
2023-05-10T10:04:39.704Z,6.60
2023-05-10T10:07:12.178Z,5.90
2023-05-10T10:09:44.904Z,5.95
2023-05-10T10:12:17.557Z,5.25
2023-05-10T10:14:51.549Z,6.07
2023-05-10T10:17:28.465Z,5.78
2023-05-10T10:20:02.111Z,5.15
2023-05-10T10:22:34.558Z,5.90
2023-05-10T10:25:08.684Z,6.22
2023-05-10T10:27:49.615Z,4.95
2023-05-10T10:30:29.749Z,6.22
2023-05-10T10:36:03.470Z,5.50
2023-05-10T10:38:59.642Z,6.20
2023-05-10T10:41:33.923Z,5.13
2023-05-10T10:44:25.329Z,5.13
2023-05-10T10:47:02.961Z,5.22
2023-05-10T10:49:43.363Z,5.25
2023-05-10T10:52:21.576Z,5.80
2023-05-10T10:54:58.414Z,6.03
2023-05-10T10:57:33.219Z,6.95
2023-05-10T11:00:26.828Z,6.00
2023-05-10T11:03:00.870Z,6.30
2023-05-10T11:05:39.800Z,5.30
2023-05-10T11:08:17.543Z,6.32
2023-05-10T11:11:04.267Z,4.95
2023-05-10T11:13:41.385Z,5.97
2023-05-10T11:16:18.823Z,5.10
2023-05-10T11:18:58.196Z,6.03
2023-05-10T11:21:31.570Z,5.60
2023-05-10T11:24:13.910Z,5.60
2023-05-10T11:26:46.324Z,6.35
2023-05-10T11:29:18.692Z,4.47
2023-05-10T11:31:51.905Z,5.43
2023-05-10T11:34:25.466Z,5.90
2023-05-10T11:36:58.833Z,5.22
2023-05-10T11:39:33.774Z,5.30
2023-05-10T11:42:06.137Z,5.82
2023-05-10T11:44:38.621Z,5.10
2023-05-10T11:47:12.905Z,5.88
2023-05-10T11:49:45.617Z,6.60
2023-05-10T11:52:19.889Z,5.25
2023-05-10T11:54:52.481Z,5.80
2023-05-10T11:57:28.523Z,5.65
2023-05-10T12:00:01.154Z,6.57
2023-05-10T12:02:34.185Z,4.82
2023-05-10T12:05:07.843Z,6.03
2023-05-10T12:07:40.814Z,5.05
2023-05-10T12:10:14.871Z,5.70
2023-05-10T12:12:48.453Z,5.25
2023-05-10T12:15:22.149Z,5.07
2023-05-10T12:17:54.999Z,6.50
2023-05-10T12:20:28.611Z,4.53
2023-05-10T12:23:04.041Z,5.35
2023-05-10T12:25:37.870Z,4.72
2023-05-10T12:28:11.040Z,5.45
2023-05-10T12:30:44.511Z,5.70
2023-05-10T12:33:18.345Z,4.43
2023-05-10T12:35:52.260Z,5.35
2023-05-10T12:38:30.068Z,5.38
2023-05-10T12:41:04.112Z,5.20
2023-05-10T12:43:37.233Z,5.25
2023-05-10T12:46:10.504Z,5.10
2023-05-10T12:48:44.377Z,4.65
2023-05-10T12:51:19.589Z,5.78
2023-05-10T12:53:52.500Z,5.53
2023-05-10T12:56:25.144Z,6.35
2023-05-10T12:58:57.423Z,5.75
2023-05-10T13:01:29.740Z,5.90
2023-05-10T13:04:02.013Z,6.03
2023-05-10T13:06:35.306Z,5.90
2023-05-10T13:09:08.259Z,5.88
2023-05-10T13:11:40.568Z,6.43
2023-05-10T13:14:13.613Z,5.55
2023-05-10T13:16:45.888Z,5.13
2023-05-10T13:19:18.443Z,5.90
2023-05-10T13:21:50.948Z,6.20
2023-05-10T13:24:23.866Z,5.97
2023-05-10T13:26:56.148Z,5.53
2023-05-10T13:29:28.444Z,6.03
2023-05-10T13:32:00.924Z,5.93
2023-05-10T13:34:33.218Z,4.70
2023-05-10T13:37:05.655Z,6.13
2023-05-10T13:39:38.815Z,5.95
2023-05-10T13:42:11.096Z,6.07
2023-05-10T13:44:43.361Z,5.18
2023-05-10T13:47:15.959Z,5.40
2023-05-10T13:49:48.311Z,5.90
2023-05-10T13:52:20.717Z,5.80
2023-05-10T13:54:55.198Z,5.07
2023-05-10T13:57:29.115Z,5.45
2023-05-10T14:00:01.728Z,5.88
2023-05-10T14:02:40.797Z,5.35
2023-05-10T14:05:13.106Z,4.68
2023-05-10T14:07:45.404Z,5.20
2023-05-10T14:10:18.353Z,4.82
2023-05-10T14:12:50.830Z,4.95
2023-05-10T14:15:23.352Z,4.40
2023-05-10T14:17:55.714Z,4.68
2023-05-10T14:20:28.072Z,4.75
2023-05-10T14:23:00.959Z,6.63
2023-05-10T14:25:34.883Z,6.18
2023-05-10T14:28:07.212Z,5.03
2023-05-10T14:30:39.479Z,5.30
2023-05-10T14:33:11.806Z,5.50
2023-05-10T14:35:45.418Z,6.15
2023-05-10T14:38:17.712Z,5.32
2023-05-10T14:40:50.647Z,6.40
2023-05-10T14:43:22.922Z,5.40
2023-05-10T14:45:55.269Z,4.47
2023-05-10T14:48:27.556Z,5.35
2023-05-10T14:50:59.825Z,5.72
2023-05-10T14:53:32.824Z,5.85
2023-05-10T14:56:06.330Z,5.55
2023-05-10T14:58:38.583Z,5.65
2023-05-10T15:01:10.918Z,6.88
2023-05-10T15:03:43.797Z,6.30
2023-05-10T15:06:16.719Z,6.10
2023-05-10T15:08:48.960Z,5.78
2023-05-10T15:11:21.866Z,5.10
2023-05-10T15:13:54.342Z,5.90
2023-05-10T15:16:26.693Z,5.28
2023-05-10T15:18:59.105Z,4.93
2023-05-10T15:21:35.336Z,5.85
2023-05-10T15:24:07.841Z,5.13
2023-05-10T15:26:41.376Z,5.22
2023-05-10T15:29:19.837Z,5.95
2023-05-10T15:31:52.294Z,5.22
2023-05-10T15:34:24.664Z,5.30
2023-05-10T15:36:57.040Z,5.53
2023-05-10T15:39:29.347Z,5.38
2023-05-10T15:42:03.323Z,4.88
2023-05-10T15:44:35.605Z,5.18
2023-05-10T15:47:07.936Z,5.88
2023-05-10T15:49:40.241Z,5.78
2023-05-10T15:52:12.536Z,5.15
2023-05-10T15:54:44.808Z,5.43
2023-05-10T15:57:17.768Z,5.28
2023-05-10T15:59:50.154Z,5.20
2023-05-10T16:02:22.904Z,5.45
2023-05-10T16:04:55.233Z,5.45
2023-05-10T16:07:27.664Z,5.78
2023-05-10T16:10:03.292Z,6.03
2023-05-10T16:12:36.388Z,6.60
2023-05-10T16:15:09.469Z,5.32
2023-05-10T16:17:42.302Z,5.90
2023-05-10T16:20:14.771Z,7.53
2023-05-10T16:22:47.099Z,7.10
2023-05-10T16:25:19.746Z,9.48
2023-05-10T16:27:52.905Z,7.38
2023-05-10T16:30:26.953Z,7.97
2023-05-10T16:33:01.159Z,6.55
2023-05-10T16:35:33.489Z,7.35
2023-05-10T16:38:05.984Z,7.88
2023-05-10T16:40:38.317Z,7.05
2023-05-10T16:43:11.238Z,8.00
2023-05-10T16:45:43.774Z,7.20
2023-05-10T16:48:16.117Z,9.93
2023-05-10T16:50:48.417Z,13.18
2023-05-10T16:53:20.901Z,8.27
2023-05-10T16:55:53.188Z,13.57
2023-05-10T16:58:26.202Z,12.27
2023-05-10T17:00:58.519Z,6.30
2023-05-10T17:03:31.142Z,6.88
2023-05-10T17:06:05.478Z,6.45
2023-05-10T17:08:37.805Z,7.15
2023-05-10T17:11:10.124Z,6.78
2023-05-10T17:13:43.061Z,7.70
2023-05-10T17:16:15.356Z,6.93
2023-05-10T17:18:47.912Z,7.30
2023-05-10T17:21:20.483Z,6.15
2023-05-10T17:23:52.803Z,5.13
2023-05-10T17:26:26.795Z,8.18
2023-05-10T17:28:59.879Z,11.10
2023-05-10T17:31:32.782Z,9.25
2023-05-10T17:34:05.766Z,6.80
2023-05-10T17:36:38.265Z,7.57
2023-05-10T17:39:11.138Z,9.70
2023-05-10T17:41:43.450Z,7.80
2023-05-10T17:44:16.478Z,8.85
2023-05-10T17:46:48.769Z,6.68
2023-05-10T17:49:21.102Z,6.20
2023-05-10T17:51:53.428Z,7.53
2023-05-10T17:54:25.742Z,8.25
2023-05-10T17:57:00.104Z,8.15
2023-05-10T17:59:33.404Z,8.27
2023-05-10T18:02:05.761Z,7.07
2023-05-10T18:04:39.480Z,7.35
2023-05-10T18:07:11.997Z,5.70
2023-05-10T18:09:44.760Z,7.03
2023-05-10T18:12:17.110Z,6.60
2023-05-10T18:14:50.294Z,6.38
2023-05-10T18:17:22.588Z,6.50
2023-05-10T18:19:58.039Z,7.70
2023-05-10T18:22:30.387Z,7.50
2023-05-10T18:25:02.736Z,7.97
2023-05-10T18:27:35.236Z,7.13
2023-05-10T18:30:09.414Z,6.70
2023-05-10T18:32:42.219Z,7.32
2023-05-10T18:35:15.041Z,7.20
2023-05-10T18:37:47.991Z,7.68
2023-05-10T18:40:20.518Z,6.20
2023-05-10T18:42:53.212Z,6.38
2023-05-10T18:45:26.196Z,6.40
2023-05-10T18:47:58.539Z,6.47
2023-05-10T18:50:30.888Z,5.30
2023-05-10T18:53:03.267Z,6.32
2023-05-10T18:55:35.592Z,5.90
2023-05-10T18:58:08.441Z,4.75
2023-05-10T19:00:41.422Z,6.50
2023-05-10T19:03:13.956Z,5.97
2023-05-10T19:05:48.144Z,5.70
2023-05-10T19:08:20.475Z,10.95
2023-05-10T19:10:52.781Z,7.95
2023-05-10T19:13:27.037Z,6.28
2023-05-10T19:16:10.318Z,6.22
2023-05-10T19:18:44.127Z,5.63
2023-05-10T19:21:17.499Z,6.75
2023-05-10T19:23:50.315Z,6.68
2023-05-10T19:26:23.333Z,7.13
2023-05-10T19:28:56.833Z,6.45
2023-05-10T19:31:30.348Z,7.13
2023-05-10T19:34:04.285Z,6.75
2023-05-10T19:36:36.640Z,6.78
2023-05-10T19:39:09.020Z,6.20
2023-05-10T19:41:41.311Z,5.90
2023-05-10T19:44:13.725Z,7.95
2023-05-10T19:46:46.730Z,7.18
2023-05-10T19:49:19.190Z,7.10
2023-05-10T19:51:52.472Z,6.72
2023-05-10T19:54:24.830Z,6.55
2023-05-10T19:56:57.080Z,6.28
2023-05-10T19:59:29.376Z,6.07
2023-05-10T20:02:02.530Z,5.93
2023-05-10T20:04:34.844Z,5.53
2023-05-10T20:07:07.178Z,7.38
2023-05-10T20:09:39.550Z,7.00
2023-05-10T20:12:12.035Z,6.47
2023-05-10T20:14:44.418Z,6.45
2023-05-10T20:17:17.404Z,6.50
2023-05-10T20:19:49.906Z,6.70
2023-05-10T20:22:22.205Z,8.75
2023-05-10T20:24:56.132Z,5.93
2023-05-10T20:27:29.056Z,6.85
2023-05-10T20:30:01.770Z,7.68
2023-05-10T20:32:35.027Z,7.25
2023-05-10T20:35:07.953Z,6.78
2023-05-10T20:37:40.271Z,6.22
2023-05-10T20:40:12.983Z,7.43
2023-05-10T20:42:45.418Z,7.43
2023-05-10T20:45:17.937Z,5.65
2023-05-10T20:47:50.968Z,6.18
2023-05-10T20:50:23.570Z,6.65
2023-05-10T20:52:55.878Z,6.50
2023-05-10T20:55:28.246Z,7.03
2023-05-10T20:58:03.428Z,8.07
2023-05-10T21:00:37.009Z,8.35
2023-05-10T21:03:09.937Z,6.95
2023-05-10T21:05:42.224Z,8.35
2023-05-10T21:08:14.466Z,7.20
2023-05-10T21:10:46.871Z,6.70
2023-05-10T21:13:19.142Z,6.18
2023-05-10T21:15:51.574Z,8.15
2023-05-10T21:18:24.632Z,8.75
2023-05-10T21:20:58.263Z,8.90
2023-05-10T21:23:31.592Z,11.85
2023-05-10T21:26:05.687Z,12.80
2023-05-10T21:28:40.011Z,11.27
2023-05-10T21:31:12.640Z,11.43
2023-05-10T21:33:45.656Z,12.65
2023-05-10T21:36:18.043Z,10.75
2023-05-10T21:38:50.449Z,10.40
2023-05-10T21:41:22.822Z,13.15
2023-05-10T21:43:55.611Z,10.82
2023-05-10T21:46:27.983Z,10.20
2023-05-10T21:49:01.447Z,10.00
2023-05-10T21:51:33.716Z,11.15
2023-05-10T21:54:06.173Z,12.63
2023-05-10T21:56:38.471Z,11.80
2023-05-10T21:59:11.021Z,10.65
2023-05-10T22:01:43.389Z,10.18
2023-05-10T22:04:16.370Z,11.00
2023-05-10T22:06:48.785Z,10.55
2023-05-10T22:09:21.084Z,11.02
2023-05-10T22:11:53.390Z,15.20
2023-05-10T22:14:25.693Z,12.88
2023-05-10T22:16:58.029Z,11.68
2023-05-10T22:19:31.018Z,11.10
2023-05-10T22:22:03.609Z,8.95
2023-05-10T22:24:36.135Z,9.80
2023-05-10T22:27:08.433Z,8.98
2023-05-10T22:29:40.752Z,10.25
2023-05-10T22:32:13.062Z,9.25
2023-05-10T22:34:46.114Z,8.85
2023-05-10T22:37:18.414Z,8.98
2023-05-10T22:39:50.783Z,8.65
2023-05-10T22:42:23.100Z,8.45
2023-05-10T22:44:55.546Z,8.23
2023-05-10T22:47:27.923Z,8.10
2023-05-10T22:50:02.762Z,7.90
2023-05-10T22:52:38.147Z,7.97
2023-05-10T22:55:10.445Z,8.98
2023-05-10T22:57:42.937Z,7.43
2023-05-10T23:00:16.527Z,7.20
2023-05-10T23:02:49.171Z,7.82
2023-05-10T23:05:22.160Z,7.05
2023-05-10T23:07:54.457Z,7.55
2023-05-10T23:10:26.840Z,7.47
2023-05-10T23:12:59.206Z,8.85
2023-05-10T23:15:32.646Z,6.60
2023-05-10T23:18:05.212Z,7.75
2023-05-10T23:20:38.163Z,6.97
2023-05-10T23:23:10.906Z,7.65
2023-05-10T23:25:43.173Z,7.95
2023-05-10T23:28:15.732Z,7.72
2023-05-10T23:30:53.618Z,8.20
2023-05-10T23:33:26.077Z,7.10
2023-05-10T23:35:58.976Z,7.85
2023-05-10T23:38:31.241Z,7.78
2023-05-10T23:41:04.004Z,6.60
2023-05-10T23:43:36.283Z,6.32
2023-05-10T23:46:08.633Z,5.72
2023-05-10T23:48:41.032Z,6.03
2023-05-10T23:51:14.001Z,6.18
2023-05-10T23:53:46.277Z,6.25
2023-05-10T23:56:18.557Z,5.25
2023-05-10T23:58:50.979Z,6.07
